Fugro Navigator — HO4895 — position and weather

sailwx.info

Track history (hours):
 
Tides and Currents Weather Stations Pressure Air Temp Water Temp Dewpoint Dewpoint Depression Visibility Wind Speed Wind Dir Waves Ship Positions

Fugro Navigator

Last reported at 2017-Sep-21 05:27 UTC. Time now 2017-Sep-24 05:13 UTC.
Position N 32°06' E 030°38'.

Length 54 m; draft 5 m.

Type: Cargo ship. MMSI: 353208000.

Date/timePositionNaut miles runAvg speedWind from/ knotsBaromVisibWave heightAir tempDewpointWater temp
2017-Sep-21 05:27N 32°06' E 030°38'0 0.0
2017-Sep-21 04:56N 32°06' E 030°38'0 0.0
2017-Sep-21 04:30N 32°06' E 030°38'0 0.0
2017-Sep-21 03:58N 32°06' E 030°38'0 0.0
2017-Sep-21 03:25N 32°06' E 030°38'0 0.2
2017-Sep-21 02:45N 32°06' E 030°38'1 3.9
2017-Sep-21 02:30N 32°05' E 030°38'3 6.8
2017-Sep-21 02:00N 32°03' E 030°35'3 6.7
2017-Sep-21 01:31N 32°01' E 030°32'  
2017-Sep-14 15:29N 32°54' E 032°24'0 0.5
2017-Sep-14 14:48N 32°54' E 032°25'0 0.5
2017-Sep-14 14:30N 32°54' E 032°25'0 0.5
2017-Sep-14 13:47N 32°54' E 032°25'0 0.5
2017-Sep-14 13:30N 32°54' E 032°25'1 0.4
2017-Sep-14 11:59N 32°53' E 032°26'0 0.2
2017-Sep-14 11:26N 32°53' E 032°26'0 0.1
2017-Sep-14 10:27N 32°53' E 032°25'0 0.5
2017-Sep-14 10:00N 32°53' E 032°25'0 0.1
2017-Sep-14 08:59N 32°53' E 032°25'1 0.2
2017-Sep-14 03:59N 32°52' E 032°26'1 1.9
2017-Sep-14 03:30N 32°51' E 032°26'1 1.6
2017-Sep-14 03:00N 32°51' E 032°27'1 1.5
2017-Sep-14 02:23N 32°51' E 032°26'1 2.1
2017-Sep-14 01:57N 32°52' E 032°26'2 2.2
2017-Sep-14 01:05N 32°54' E 032°25'1 2.4
2017-Sep-14 00:48N 32°55' E 032°25'1 0.9
2017-Sep-13 23:13N 32°53' E 032°25'0 0.0
2017-Sep-13 22:58N 32°53' E 032°25'0 0.0
2017-Sep-13 22:30N 32°53' E 032°25'0 0.2
2017-Sep-13 22:00N 32°53' E 032°25'3 6.1
2017-Sep-13 21:30N 32°50' E 032°27'3 6.3
2017-Sep-13 21:00N 32°47' E 032°28'3 6.2
2017-Sep-13 20:29N 32°44' E 032°29'3 6.2
2017-Sep-13 19:59N 32°42' E 032°31'3 6.3
2017-Sep-13 19:30N 32°39' E 032°32'3 6.3
2017-Sep-13 19:00N 32°36' E 032°33'3 6.2
2017-Sep-13 18:29N 32°33' E 032°34'3 5.8
2017-Sep-13 17:57N 32°30' E 032°35'0 0.1
2017-Sep-13 17:29N 32°30' E 032°35'0 0.1
2017-Sep-13 15:58N 32°30' E 032°35'0 0.4
2017-Sep-13 15:30N 32°29' E 032°36'0 0.4
2017-Sep-13 14:54N 32°29' E 032°36'0 0.4
2017-Sep-13 14:28N 32°29' E 032°36'0 0.1
2017-Sep-13 14:00N 32°29' E 032°36'0 0.3
2017-Sep-13 13:27N 32°29' E 032°36'0 0.3
2017-Sep-13 12:18N 32°29' E 032°37'4 0.5
2017-Sep-13 04:20N 32°33' E 032°36'0 0.7
2017-Sep-13 03:50N 32°33' E 032°36'0 0.7
2017-Sep-13 03:28N 32°33' E 032°36'0 0.7
2017-Sep-13 03:00N 32°32' E 032°36'0 0.7
2017-Sep-13 02:30N 32°32' E 032°36'0 0.7
2017-Sep-13 02:00N 32°32' E 032°36'2 0.3
2017-Sep-12 19:09N 32°33' E 032°36'0 0.2
2017-Sep-12 18:26N 32°33' E 032°36'0 0.2
2017-Sep-12 16:08N 32°33' E 032°36'0 0.7
2017-Sep-12 16:00N 32°33' E 032°36'0 0.7
2017-Sep-12 15:30N 32°33' E 032°36'0 0.7
2017-Sep-12 14:57N 32°32' E 032°36'0 0.7
2017-Sep-12 14:20N 32°32' E 032°36'0 0.7
2017-Sep-12 13:57N 32°31' E 032°36'2 0.7
2017-Sep-12 11:44N 32°30' E 032°36'0 0.7
2017-Sep-12 11:29N 32°30' E 032°36'0 0.7
2017-Sep-12 11:00N 32°29' E 032°36'0 0.7
2017-Sep-12 10:30N 32°29' E 032°36'1 0.7
2017-Sep-12 09:08N 32°28' E 032°35'0 0.7
2017-Sep-12 09:00N 32°28' E 032°35'0 0.7
2017-Sep-12 08:29N 32°28' E 032°35'0 0.7
2017-Sep-12 07:58N 32°28' E 032°35'0 0.7
2017-Sep-12 07:30N 32°27' E 032°34'1 0.7
2017-Sep-12 06:32N 32°27' E 032°34'0 0.6
2017-Sep-12 05:47N 32°26' E 032°34'0 0.0
2017-Sep-12 05:30N 32°26' E 032°34'0 0.0
2017-Sep-12 03:57N 32°26' E 032°34'1 2.1
2017-Sep-12 03:30N 32°27' E 032°34'3 6.9
2017-Sep-12 03:00N 32°31' E 032°35'3 6.2
2017-Sep-12 02:30N 32°34' E 032°36'0 0.2
2017-Sep-12 02:00N 32°34' E 032°36'0 0.0
2017-Sep-12 01:30N 32°34' E 032°36'0 0.0
2017-Sep-12 01:00N 32°34' E 032°36'0 0.0
2017-Sep-12 00:30N 32°34' E 032°36'0 0.4
2017-Sep-12 00:00N 32°33' E 032°36'2 0.7
2017-Sep-11 21:27N 32°32' E 032°37'0 0.7
2017-Sep-11 20:59N 32°31' E 032°37'0 0.7
2017-Sep-11 20:19N 32°31' E 032°36'0 0.7
2017-Sep-11 20:00N 32°31' E 032°36'0 0.7
2017-Sep-11 19:30N 32°30' E 032°36'0 0.7
2017-Sep-11 19:00N 32°30' E 032°36'0 0.7
2017-Sep-11 18:30N 32°30' E 032°36'2 0.7
2017-Sep-11 15:05N 32°28' E 032°35'0 0.6
2017-Sep-11 15:00N 32°28' E 032°35'1 0.7
2017-Sep-11 13:29N 32°27' E 032°34'0 0.7
2017-Sep-11 12:59N 32°26' E 032°34'0 0.3
2017-Sep-11 12:30N 32°26' E 032°34'0 0.0
2017-Sep-11 11:45N 32°26' E 032°34'0 0.0
2017-Sep-11 11:27N 32°26' E 032°34'0 0.0
2017-Sep-11 11:00N 32°26' E 032°34'1 2.3
2017-Sep-11 10:29N 32°27' E 032°34'6 6.7
2017-Sep-11 09:34N 32°33' E 032°36'0 1.6
2017-Sep-11 09:30N 32°33' E 032°36'0 0.0
2017-Sep-11 09:00N 32°33' E 032°36'0 0.0
2017-Sep-11 08:18N 32°33' E 032°36'0 0.0
2017-Sep-11 08:00N 32°33' E 032°36'0 0.2
2017-Sep-11 07:27N 32°33' E 032°36'0 0.7
2017-Sep-11 07:00N 32°33' E 032°37'0 0.7
2017-Sep-11 06:30N 32°32' E 032°37'0 0.7
2017-Sep-11 05:59N 32°32' E 032°37'  
Track history (hours):
 
Tides and Currents Weather Stations Pressure Air Temp Water Temp Dewpoint Dewpoint Depression Visibility Wind Speed Wind Dir Waves Ship Positions

Fugro Navigator

Last reported at 2017-Sep-21 05:27 UTC. Time now 2017-Sep-24 05:13 UTC.
Position N 32°06' E 030°38'.

Length 54 m; draft 5 m.

Type: Cargo ship. MMSI: 353208000.

Date/timePositionNaut miles runAvg speedWind from/ knotsBaromVisibWave heightAir tempDewpointWater temp
2017-Sep-21 05:27N 32°06' E 030°38'0 0.0
2017-Sep-21 04:56N 32°06' E 030°38'0 0.0
2017-Sep-21 04:30N 32°06' E 030°38'0 0.0
2017-Sep-21 03:58N 32°06' E 030°38'0 0.0
2017-Sep-21 03:25N 32°06' E 030°38'0 0.2
2017-Sep-21 02:45N 32°06' E 030°38'1 3.9
2017-Sep-21 02:30N 32°05' E 030°38'3 6.8
2017-Sep-21 02:00N 32°03' E 030°35'3 6.7
2017-Sep-21 01:31N 32°01' E 030°32'  
2017-Sep-14 15:29N 32°54' E 032°24'0 0.5
2017-Sep-14 14:48N 32°54' E 032°25'0 0.5
2017-Sep-14 14:30N 32°54' E 032°25'0 0.5
2017-Sep-14 13:47N 32°54' E 032°25'0 0.5
2017-Sep-14 13:30N 32°54' E 032°25'1 0.4
2017-Sep-14 11:59N 32°53' E 032°26'0 0.2
2017-Sep-14 11:26N 32°53' E 032°26'0 0.1
2017-Sep-14 10:27N 32°53' E 032°25'0 0.5
2017-Sep-14 10:00N 32°53' E 032°25'0 0.1
2017-Sep-14 08:59N 32°53' E 032°25'1 0.2
2017-Sep-14 03:59N 32°52' E 032°26'1 1.9
2017-Sep-14 03:30N 32°51' E 032°26'1 1.6
2017-Sep-14 03:00N 32°51' E 032°27'1 1.5
2017-Sep-14 02:23N 32°51' E 032°26'1 2.1
2017-Sep-14 01:57N 32°52' E 032°26'2 2.2
2017-Sep-14 01:05N 32°54' E 032°25'1 2.4
2017-Sep-14 00:48N 32°55' E 032°25'1 0.9
2017-Sep-13 23:13N 32°53' E 032°25'0 0.0
2017-Sep-13 22:58N 32°53' E 032°25'0 0.0
2017-Sep-13 22:30N 32°53' E 032°25'0 0.2
2017-Sep-13 22:00N 32°53' E 032°25'3 6.1
2017-Sep-13 21:30N 32°50' E 032°27'3 6.3
2017-Sep-13 21:00N 32°47' E 032°28'3 6.2
2017-Sep-13 20:29N 32°44' E 032°29'3 6.2
2017-Sep-13 19:59N 32°42' E 032°31'3 6.3
2017-Sep-13 19:30N 32°39' E 032°32'3 6.3
2017-Sep-13 19:00N 32°36' E 032°33'3 6.2
2017-Sep-13 18:29N 32°33' E 032°34'3 5.8
2017-Sep-13 17:57N 32°30' E 032°35'0 0.1
2017-Sep-13 17:29N 32°30' E 032°35'0 0.1
2017-Sep-13 15:58N 32°30' E 032°35'0 0.4
2017-Sep-13 15:30N 32°29' E 032°36'0 0.4
2017-Sep-13 14:54N 32°29' E 032°36'0 0.4
2017-Sep-13 14:28N 32°29' E 032°36'0 0.1
2017-Sep-13 14:00N 32°29' E 032°36'0 0.3
2017-Sep-13 13:27N 32°29' E 032°36'0 0.3
2017-Sep-13 12:18N 32°29' E 032°37'4 0.5
2017-Sep-13 04:20N 32°33' E 032°36'0 0.7
2017-Sep-13 03:50N 32°33' E 032°36'0 0.7
2017-Sep-13 03:28N 32°33' E 032°36'0 0.7
2017-Sep-13 03:00N 32°32' E 032°36'0 0.7
2017-Sep-13 02:30N 32°32' E 032°36'0 0.7
2017-Sep-13 02:00N 32°32' E 032°36'2 0.3
2017-Sep-12 19:09N 32°33' E 032°36'0 0.2
2017-Sep-12 18:26N 32°33' E 032°36'0 0.2
2017-Sep-12 16:08N 32°33' E 032°36'0 0.7
2017-Sep-12 16:00N 32°33' E 032°36'0 0.7
2017-Sep-12 15:30N 32°33' E 032°36'0 0.7
2017-Sep-12 14:57N 32°32' E 032°36'0 0.7
2017-Sep-12 14:20N 32°32' E 032°36'0 0.7
2017-Sep-12 13:57N 32°31' E 032°36'2 0.7
2017-Sep-12 11:44N 32°30' E 032°36'0 0.7
2017-Sep-12 11:29N 32°30' E 032°36'0 0.7
2017-Sep-12 11:00N 32°29' E 032°36'0 0.7
2017-Sep-12 10:30N 32°29' E 032°36'1 0.7
2017-Sep-12 09:08N 32°28' E 032°35'0 0.7
2017-Sep-12 09:00N 32°28' E 032°35'0 0.7
2017-Sep-12 08:29N 32°28' E 032°35'0 0.7
2017-Sep-12 07:58N 32°28' E 032°35'0 0.7
2017-Sep-12 07:30N 32°27' E 032°34'1 0.7
2017-Sep-12 06:32N 32°27' E 032°34'0 0.6
2017-Sep-12 05:47N 32°26' E 032°34'0 0.0
2017-Sep-12 05:30N 32°26' E 032°34'0 0.0
2017-Sep-12 03:57N 32°26' E 032°34'1 2.1
2017-Sep-12 03:30N 32°27' E 032°34'3 6.9
2017-Sep-12 03:00N 32°31' E 032°35'3 6.2
2017-Sep-12 02:30N 32°34' E 032°36'0 0.2
2017-Sep-12 02:00N 32°34' E 032°36'0 0.0
2017-Sep-12 01:30N 32°34' E 032°36'0 0.0
2017-Sep-12 01:00N 32°34' E 032°36'0 0.0
2017-Sep-12 00:30N 32°34' E 032°36'0 0.4
2017-Sep-12 00:00N 32°33' E 032°36'2 0.7
2017-Sep-11 21:27N 32°32' E 032°37'0 0.7
2017-Sep-11 20:59N 32°31' E 032°37'0 0.7
2017-Sep-11 20:19N 32°31' E 032°36'0 0.7
2017-Sep-11 20:00N 32°31' E 032°36'0 0.7
2017-Sep-11 19:30N 32°30' E 032°36'0 0.7
2017-Sep-11 19:00N 32°30' E 032°36'0 0.7
2017-Sep-11 18:30N 32°30' E 032°36'2 0.7
2017-Sep-11 15:05N 32°28' E 032°35'0 0.6
2017-Sep-11 15:00N 32°28' E 032°35'1 0.7
2017-Sep-11 13:29N 32°27' E 032°34'0 0.7
2017-Sep-11 12:59N 32°26' E 032°34'0 0.3
2017-Sep-11 12:30N 32°26' E 032°34'0 0.0
2017-Sep-11 11:45N 32°26' E 032°34'0 0.0
2017-Sep-11 11:27N 32°26' E 032°34'0 0.0
2017-Sep-11 11:00N 32°26' E 032°34'1 2.3
2017-Sep-11 10:29N 32°27' E 032°34'6 6.7
2017-Sep-11 09:34N 32°33' E 032°36'0 1.6
2017-Sep-11 09:30N 32°33' E 032°36'0 0.0
2017-Sep-11 09:00N 32°33' E 032°36'0 0.0
2017-Sep-11 08:18N 32°33' E 032°36'0 0.0
2017-Sep-11 08:00N 32°33' E 032°36'0 0.2
2017-Sep-11 07:27N 32°33' E 032°36'0 0.7
2017-Sep-11 07:00N 32°33' E 032°37'0 0.7
2017-Sep-11 06:30N 32°32' E 032°37'0 0.7
2017-Sep-11 05:59N 32°32' E 032°37'  

Dump ship's entire track history